首页
METAR-TAF:

METAR-TAF

机场 :

西安咸阳国际机场

西安, 中华人民共和国

纬度: 34-26N, 经度: 108-45E, 海拔: 479米

当前天气观测

该预报发布于58分钟前的18:00 UTC
风速2节,风向多变
温度 -7°C
湿度 67%
气压 1019 hPa
能見度: 5000

METAR: ZLXY 231800Z VRB01MPS 5000 HZ NSC M07/M12 Q1019 NOSIG

时间: 02:58 (18:58 UTC)

预报

该预报发布于3小时和49分钟前的15:09 UTC
预报有效从23日的 18点(UTC)到 24日的 18点(UTC)
风速6节,风向北转东北
能見度: 3000

TAF: ZLXY 231509Z 2318/2418 03003MPS 3000 HZ NSC TX08/2408Z TNM08/23Z

超过4000个机场的气象观测和天气预报(METAR&TAF报告)。

可查询的气象台以黄色和红色小点在地图上表示。

将鼠标移到小点上方,可查看气象台名称。

然后点击查看天气观测和预报。

如需切换地图:点击带黑十字的绿色按钮放大地图;点击带横线的绿色按钮缩小地图;或者点击绿色箭头查看邻近地区的地图。


METAR-TAF: